Time;durP1;ratioP1;P1;durP2;ratioP2;P2;SDS_P1;SDS_P2;PMS_P1;PMS_P2;Temp;Humidity;BMP_temperature;BMP_pressure;BME280_temperature;BME280_humidity;BME280_pressure;Samples;Min_cycle;Max_cycle;Signal;HPM_P1;HPM_P2
2021/03/16 00:01:05;;;;;;;1.95;0.70;;;;;;;8.96;83.54;98202.09;4994317;28;20527;-72
2021/03/16 00:03:32;;;;;;;0.35;0.30;;;;;;;8.42;80.19;98218.28;4993151;28;20400;-72
2021/03/16 00:05:59;;;;;;;0.47;0.30;;;;;;;8.40;81.51;98215.81;4994646;28;20038;-71
2021/03/16 00:08:27;;;;;;;0.40;0.20;;;;;;;8.30;79.45;98221.41;4993132;28;20034;-71
2021/03/16 00:10:53;;;;;;;0.10;0.10;;;;;;;8.29;77.18;98223.13;4992707;28;20026;-72
2021/03/16 00:13:19;;;;;;;0.10;0.10;;;;;;;8.21;78.53;98229.41;4994285;28;20037;-72
2021/03/16 00:15:47;;;;;;;0.65;0.10;;;;;;;8.12;77.39;98240.75;4994240;28;20022;-72
2021/03/16 00:18:15;;;;;;;0.10;0.05;;;;;;;8.07;78.12;98254.50;4992672;28;20360;-72
2021/03/16 00:20:52;;;;;;;1.65;0.17;;;;;;;8.47;77.68;98256.88;4992413;28;20046;-72
2021/03/16 00:23:19;;;;;;;0.35;0.10;;;;;;;8.28;78.29;98261.97;4992843;28;20522;-73
2021/03/16 00:25:45;;;;;;;0.30;0.10;;;;;;;8.25;80.22;98257.06;4992672;28;20019;-72
2021/03/16 00:28:13;;;;;;;0.63;0.20;;;;;;;8.31;80.71;98253.41;4994063;28;20037;-72
2021/03/16 00:30:42;;;;;;;0.25;0.22;;;;;;;8.02;79.28;98253.91;4993194;28;20018;-72
2021/03/16 00:33:09;;;;;;;0.17;0.10;;;;;;;8.11;79.27;98241.66;4993741;28;20034;-72
2021/03/16 00:35:36;;;;;;;9.73;3.70;;;;;;;8.22;79.15;98236.91;4993585;28;20023;-71
2021/03/16 00:38:09;;;;;;;3.50;1.38;;;;;;;8.09;79.10;98242.63;4992320;28;20471;-71
2021/03/16 00:40:35;;;;;;;0.57;0.20;;;;;;;7.99;79.58;98246.44;4993264;28;20066;-72
2021/03/16 00:43:01;;;;;;;0.50;0.20;;;;;;;7.86;79.56;98233.56;4993546;28;20056;-71
2021/03/16 00:45:39;;;;;;;0.52;0.20;;;;;;;7.93;79.60;98250.09;4993463;28;20389;-72
2021/03/16 00:48:18;;;;;;;0.75;0.28;;;;;;;7.92;79.54;98261.09;4992295;28;20022;-72
2021/03/16 00:50:44;;;;;;;0.10;0.10;;;;;;;7.97;77.31;98256.66;4993438;28;20034;-72
2021/03/16 00:53:10;;;;;;;0.20;0.15;;;;;;;7.99;79.05;98270.03;4993425;28;20556;-72
2021/03/16 00:55:37;;;;;;;0.80;0.30;;;;;;;7.88;78.39;98267.19;4993209;28;20022;-70
2021/03/16 00:58:03;;;;;;;0.50;0.20;;;;;;;7.73;79.53;98273.75;4993132;28;20515;-72
2021/03/16 01:00:29;;;;;;;0.52;0.20;;;;;;;7.56;77.11;98271.16;4991760;28;20116;-72
2021/03/16 01:02:55;;;;;;;0.47;0.30;;;;;;;7.61;78.37;98275.97;4993070;28;20543;-72
2021/03/16 01:05:22;;;;;;;0.50;0.30;;;;;;;7.53;79.11;98270.44;4993121;28;20022;-71
2021/03/16 01:07:47;;;;;;;16.63;6.57;;;;;;;7.69;79.47;98281.53;4993092;28;20030;-72
2021/03/16 01:10:18;;;;;;;2.13;0.75;;;;;;;7.58;80.67;98292.13;4991886;28;20022;-71
2021/03/16 01:12:44;;;;;;;0.95;0.40;;;;;;;7.35;80.65;98304.91;4991771;28;20054;-73
2021/03/16 01:15:14;;;;;;;0.50;0.40;;;;;;;7.44;79.76;98291.06;4991730;28;20117;-72
2021/03/16 01:17:41;;;;;;;0.68;0.30;;;;;;;7.46;81.32;98309.50;4992945;28;20034;-72
2021/03/16 01:20:16;;;;;;;0.45;0.20;;;;;;;7.31;82.35;98287.44;4992343;28;20046;-72
2021/03/16 01:22:43;;;;;;;0.50;0.25;;;;;;;7.26;82.68;98315.41;4992769;28;20027;-72
2021/03/16 01:25:12;;;;;;;1.50;0.40;;;;;;;7.68;81.02;98316.13;4991737;28;20088;-72
2021/03/16 01:27:45;;;;;;;0.77;0.40;;;;;;;7.56;82.63;98316.66;4991976;28;20459;-72
2021/03/16 01:30:18;;;;;;;0.70;0.40;;;;;;;7.39;82.79;98320.78;4992134;28;20506;-72
2021/03/16 01:32:46;;;;;;;0.30;0.30;;;;;;;7.20;81.56;98313.13;4991483;28;20472;-72
2021/03/16 01:35:15;;;;;;;0.80;0.40;;;;;;;7.17;82.06;98307.38;4991111;28;20483;-73
2021/03/16 01:37:44;;;;;;;1.58;0.55;;;;;;;7.09;86.22;98315.25;4991307;28;20026;-71
2021/03/16 01:40:13;;;;;;;0.43;0.28;;;;;;;7.18;82.39;98319.94;4992366;28;20046;-72
2021/03/16 01:42:46;;;;;;;0.65;0.28;;;;;;;7.05;84.80;98303.66;4991979;28;20561;-72
2021/03/16 01:45:15;;;;;;;0.40;0.40;;;;;;;6.97;83.70;98300.63;4992296;28;20030;-72
2021/03/16 01:47:48;;;;;;;0.40;0.40;;;;;;;7.38;82.81;98298.91;4991314;28;20025;-73
2021/03/16 01:50:21;;;;;;;1.48;0.60;;;;;;;7.12;86.11;98297.47;4991071;28;20045;-72
2021/03/16 01:52:49;;;;;;;1.70;0.30;;;;;;;6.85;83.61;98296.06;4992403;28;20018;-72
2021/03/16 01:55:16;;;;;;;0.50;0.20;;;;;;;7.25;82.58;98302.84;4991347;28;20432;-73
2021/03/16 01:57:46;;;;;;;0.40;0.30;;;;;;;7.13;85.50;98310.94;4992210;28;20031;-72
2021/03/16 02:00:14;;;;;;;0.50;0.30;;;;;;;6.91;85.32;98289.03;4992009;28;20073;-73
2021/03/16 02:02:47;;;;;;;0.50;0.40;;;;;;;7.17;84.66;98309.91;4991209;28;20415;-72
2021/03/16 02:05:16;;;;;;;0.40;0.30;;;;;;;6.58;87.11;98312.28;4990701;28;20034;-73
2021/03/16 02:08:19;;;;;;;0.65;0.30;;;;;;;6.81;84.11;98302.94;4992219;28;20114;-72
2021/03/16 02:11:09;;;;;;;0.30;0.25;;;;;;;7.19;84.70;98303.09;5029232;28;20048;-72
2021/03/16 02:13:53;;;;;;;1.50;0.30;;;;;;;6.72;85.26;98305.00;5012579;28;20495;-72
2021/03/16 02:16:29;;;;;;;2.25;0.40;;;;;;;6.76;85.42;98307.34;4992044;28;20030;-72
2021/03/16 02:18:58;;;;;;;0.45;0.30;;;;;;;6.79;83.82;98297.13;4991210;28;20035;-73
2021/03/16 02:21:30;;;;;;;1.17;0.60;;;;;;;6.78;83.59;98276.97;4990396;28;20057;-72
2021/03/16 02:24:19;;;;;;;1.70;0.93;;;;;;;6.62;84.66;98296.97;4991637;28;20022;-73
2021/03/16 02:27:17;;;;;;;1.38;0.57;;;;;;;6.69;85.65;98300.09;4990752;28;20049;-72
2021/03/16 02:29:46;;;;;;;4.45;2.20;;;;;;;6.79;84.33;98299.63;4992073;28;20038;-71
2021/03/16 02:32:25;;;;;;;2.33;1.33;;;;;;;6.60;84.58;98301.25;4990491;28;20444;-72
2021/03/16 02:35:05;;;;;;;4.40;2.60;;;;;;;6.75;86.65;98312.47;4991762;28;20033;-71
2021/03/16 02:37:42;;;;;;;1.95;1.02;;;;;;;6.67;84.51;98287.53;4990413;28;20034;-72
2021/03/16 02:40:14;;;;;;;2.88;0.30;;;;;;;6.70;82.16;98305.06;4991667;28;20511;-72
2021/03/16 02:42:47;;;;;;;;;;;;;;;6.67;85.79;98317.00;4991954;28;20129;-72
2021/03/16 02:45:16;;;;;;;2.15;0.60;;;;;;;6.61;82.72;98318.06;4991626;28;19921;-72
2021/03/16 02:47:44;;;;;;;1.45;0.50;;;;;;;6.76;83.72;98322.50;4991951;28;20035;-72
2021/03/16 02:50:17;;;;;;;1.80;0.70;;;;;;;6.96;84.64;98330.09;4990360;28;20046;-72
2021/03/16 02:53:00;;;;;;;1.15;0.52;;;;;;;6.83;81.46;98300.38;4993009;28;20181;-72
2021/03/16 02:55:26;;;;;;;0.93;0.43;;;;;;;7.00;84.08;98319.00;4994264;28;20023;-72
2021/03/16 02:57:58;;;;;;;0.50;0.40;;;;;;;6.85;86.20;98322.13;4994267;28;20030;-72
2021/03/16 03:00:25;;;;;;;0.73;0.55;;;;;;;7.16;85.93;98326.78;4995372;28;20026;-72
2021/03/16 03:02:53;;;;;;;0.40;0.40;;;;;;;6.86;88.53;98322.94;4995376;28;20113;-72
2021/03/16 03:05:19;;;;;;;1.00;0.43;;;;;;;6.71;85.44;98321.03;4994449;28;20022;-72
2021/03/16 03:08:03;;;;;;;0.40;0.30;;;;;;;6.84;87.39;98324.72;4994109;28;20083;-72
2021/03/16 03:10:29;;;;;;;0.50;0.28;;;;;;;7.16;84.84;98323.41;4994117;28;20027;-72
2021/03/16 03:13:01;;;;;;;0.20;0.10;;;;;;;6.93;85.92;98310.00;4994146;28;20575;-72
2021/03/16 03:15:26;;;;;;;;;;;;;;;6.91;84.98;98326.13;4995444;28;20488;-71
2021/03/16 03:17:52;;;;;;;1.83;0.30;;;;;;;6.86;85.16;98323.78;4995004;28;19924;-73
2021/03/16 03:20:18;;;;;;;0.40;0.20;;;;;;;6.93;84.95;98310.00;4994799;28;20050;-72
2021/03/16 03:22:45;;;;;;;0.30;0.22;;;;;;;6.96;83.87;98325.06;4995004;28;20026;-72
2021/03/16 03:25:34;;;;;;;0.30;0.30;;;;;;;6.83;84.43;98328.13;4995078;28;20502;-72
2021/03/16 03:28:15;;;;;;;0.45;0.30;;;;;;;6.70;84.03;98335.38;4993735;28;20027;-72
2021/03/16 03:30:42;;;;;;;0.40;0.30;;;;;;;6.98;83.44;98338.44;4993807;28;20126;-72
2021/03/16 03:33:11;;;;;;;0.68;0.50;;;;;;;6.81;80.80;98324.84;4993427;28;20049;-72
2021/03/16 03:35:38;;;;;;;0.65;0.40;;;;;;;6.78;83.35;98340.09;4993519;28;20034;-72
2021/03/16 03:38:09;;;;;;;0.20;0.15;;;;;;;6.57;82.44;98331.69;4993453;28;20025;-71
2021/03/16 03:40:36;;;;;;;0.75;0.60;;;;;;;6.79;84.79;98334.19;4994507;28;20046;-72
2021/03/16 03:43:05;;;;;;;1.85;1.02;;;;;;;6.52;86.65;98323.44;4994771;28;20026;-72
2021/03/16 03:45:33;;;;;;;1.30;0.80;;;;;;;6.60;85.88;98335.78;4993206;28;20128;-72
2021/03/16 03:48:02;;;;;;;1.40;0.70;;;;;;;6.74;86.90;98331.84;4994596;28;20057;-72
2021/03/16 03:50:29;;;;;;;1.63;1.20;;;;;;;6.60;86.61;98336.59;4994688;28;20088;-71
2021/03/16 03:52:59;;;;;;;2.38;1.50;;;;;;;6.59;84.80;98327.41;4993246;28;20030;-72
2021/03/16 03:55:28;;;;;;;1.80;1.50;;;;;;;6.78;85.01;98340.09;4994430;28;20049;-72
2021/03/16 03:57:56;;;;;;;2.38;1.25;;;;;;;6.60;84.86;98340.81;4993227;28;20120;-72
2021/03/16 04:00:23;;;;;;;2.03;1.05;;;;;;;6.43;88.02;98335.59;4992980;28;20036;-72
2021/03/16 04:02:52;;;;;;;1.60;1.15;;;;;;;6.46;87.77;98336.31;4994498;28;20484;-72
2021/03/16 04:05:19;;;;;;;2.28;1.40;;;;;;;6.42;89.06;98336.50;4993506;28;20026;-72
2021/03/16 04:07:47;;;;;;;3.67;1.70;;;;;;;6.23;92.23;98341.41;4993020;28;20034;-72
2021/03/16 04:10:15;;;;;;;5.10;2.90;;;;;;;6.33;93.85;98334.31;4994812;28;20040;-72
2021/03/16 04:12:42;;;;;;;5.55;2.88;;;;;;;6.19;94.12;98365.09;4994158;28;20026;-72
2021/03/16 04:15:16;;;;;;;12.55;7.43;;;;;;;6.20;93.74;98356.63;4993908;28;20057;-71
2021/03/16 04:17:44;;;;;;;24.63;13.52;;;;;;;6.27;94.56;98365.63;4994301;28;20030;-72
2021/03/16 04:20:12;;;;;;;7.82;5.13;;;;;;;6.14;94.43;98366.94;4992271;28;20088;-72
2021/03/16 04:22:50;;;;;;;6.78;4.35;;;;;;;6.18;95.09;98373.53;4993857;28;20101;-73
2021/03/16 04:25:25;;;;;;;7.22;5.00;;;;;;;6.05;96.19;98373.16;4993971;28;20030;-73
2021/03/16 04:27:54;;;;;;;7.05;4.80;;;;;;;5.94;96.05;98371.91;4992803;28;20026;-72
2021/03/16 04:30:21;;;;;;;6.22;4.30;;;;;;;5.87;97.08;98376.34;4993759;28;20105;-71
2021/03/16 04:32:47;;;;;;;8.13;6.07;;;;;;;5.86;96.73;98368.84;4992673;28;20378;-72
2021/03/16 04:35:14;;;;;;;7.00;4.90;;;;;;;5.77;96.71;98366.59;4992344;28;20037;-72
2021/03/16 04:37:42;;;;;;;6.95;4.70;;;;;;;5.86;96.96;98364.59;4992314;28;20456;-72
2021/03/16 04:40:09;;;;;;;7.22;5.15;;;;;;;6.04;96.30;98373.22;4992569;28;20030;-72
2021/03/16 04:42:41;;;;;;;8.30;6.03;;;;;;;5.83;95.85;98356.28;4993571;28;20117;-72
2021/03/16 04:45:07;;;;;;;9.30;6.80;;;;;;;5.96;96.67;98380.25;4993544;28;20041;-72
2021/03/16 04:47:34;;;;;;;11.93;9.02;;;;;;;5.93;96.40;98372.75;4993807;28;20038;-72
2021/03/16 04:49:59;;;;;;;17.38;11.02;;;;;;;5.83;96.20;98372.28;4992242;28;20092;-72
2021/03/16 04:52:28;;;;;;;19.48;12.05;;;;;;;5.92;94.52;98376.97;4993477;28;20042;-73
2021/03/16 04:54:57;;;;;;;7.30;5.28;;;;;;;5.91;95.28;98380.41;4993671;28;20030;-72
2021/03/16 04:57:27;;;;;;;8.05;5.60;;;;;;;6.01;94.80;98381.72;4993346;28;20030;-72
2021/03/16 04:59:55;;;;;;;7.20;4.50;;;;;;;5.99;94.33;98377.59;4993196;28;20496;-72
2021/03/16 05:02:22;;;;;;;9.18;6.72;;;;;;;5.97;91.93;98371.78;4993428;28;20037;-71
2021/03/16 05:05:00;;;;;;;15.25;10.25;;;;;;;6.12;94.04;98379.63;4993107;28;20027;-72
2021/03/16 05:07:32;;;;;;;7.63;5.10;;;;;;;5.82;91.83;98357.97;4993111;28;20037;-72
2021/03/16 05:10:04;;;;;;;;;;;;;;;6.22;92.90;98384.34;4993755;28;20041;-72
2021/03/16 05:12:29;;;;;;;8.75;5.97;;;;;;;5.96;91.87;98387.81;4992989;28;19936;-72
2021/03/16 05:14:58;;;;;;;7.05;3.58;;;;;;;5.89;92.21;98388.88;4993018;28;20484;-72
2021/03/16 05:17:24;;;;;;;10.02;6.55;;;;;;;5.90;93.99;98398.09;4993076;28;20026;-71
2021/03/16 05:19:49;;;;;;;10.05;6.63;;;;;;;6.11;93.29;98388.06;4991209;28;20050;-72
2021/03/16 05:22:15;;;;;;;14.88;10.00;;;;;;;6.16;93.12;98395.47;4992797;28;20164;-72
2021/03/16 05:24:41;;;;;;;15.18;8.73;;;;;;;6.20;92.64;98402.03;4991676;28;20412;-72
2021/03/16 05:27:08;;;;;;;22.75;12.57;;;;;;;6.12;93.66;98392.22;4991544;28;20041;-73
2021/03/16 05:29:35;;;;;;;22.88;11.40;;;;;;;6.09;93.88;98397.41;4992844;28;20030;-71
2021/03/16 05:32:00;;;;;;;29.63;18.13;;;;;;;6.11;93.33;98389.78;4992471;28;20026;-73
2021/03/16 05:34:27;;;;;;;27.75;17.73;;;;;;;6.50;91.87;98395.88;4992888;28;20492;-71
2021/03/16 05:36:53;;;;;;;25.63;16.73;;;;;;;6.42;94.13;98397.88;4992527;28;20488;-71
2021/03/16 05:39:20;;;;;;;16.77;10.45;;;;;;;6.14;92.26;98407.31;4991132;28;20026;-72
2021/03/16 05:41:46;;;;;;;18.20;10.32;;;;;;;6.33;93.03;98408.31;4991580;28;20030;-76
2021/03/16 05:47:33;;;;;;;7.70;4.90;;;;;;;6.11;92.45;98404.91;4992664;28;20049;-76
2021/03/16 05:50:02;;;;;;;9.20;7.38;;;;;;;6.08;92.58;98420.16;4991027;28;20034;-75
2021/03/16 05:52:30;;;;;;;9.50;7.15;;;;;;;6.26;93.28;98429.56;4990738;28;20046;-75
2021/03/16 05:54:57;;;;;;;12.15;8.88;;;;;;;6.11;93.43;98417.50;4989852;28;20054;-78
2021/03/16 05:57:23;;;;;;;11.95;9.77;;;;;;;6.35;92.89;98423.38;4986909;28;20033;-74
2021/03/16 05:59:49;;;;;;;13.23;10.55;;;;;;;6.43;93.75;98431.50;4986829;28;20038;-74
2021/03/16 06:02:18;;;;;;;15.10;11.52;;;;;;;6.27;93.60;98426.19;4666788;28;10000410;-75
2021/03/16 06:04:44;;;;;;;12.90;8.95;;;;;;;6.34;92.81;98425.06;5026101;28;20518;-76
2021/03/16 06:07:18;;;;;;;10.25;7.78;;;;;;;6.50;94.11;98443.00;5024866;28;20525;-75
2021/03/16 06:09:45;;;;;;;8.90;7.57;;;;;;;6.38;93.24;98433.38;5024885;28;20162;-74
2021/03/16 06:12:13;;;;;;;8.38;6.15;;;;;;;6.23;92.91;98434.75;5025115;28;21353;-73
2021/03/16 06:14:43;;;;;;;13.02;9.30;;;;;;;6.19;93.84;98419.75;5025472;28;20499;-77
2021/03/16 06:17:15;;;;;;;11.27;8.00;;;;;;;6.59;93.74;98451.09;5024785;28;20036;-75
2021/03/16 06:19:41;;;;;;;15.70;12.65;;;;;;;6.57;92.78;98442.75;4984440;28;20436;-75
2021/03/16 06:22:08;;;;;;;14.73;12.38;;;;;;;6.29;94.05;98421.91;4986152;28;20033;-75
2021/03/16 06:24:47;;;;;;;16.38;13.65;;;;;;;6.43;94.04;98442.41;4987080;28;20030;-76
2021/03/16 06:27:27;;;;;;;12.82;10.20;;;;;;;6.23;92.16;98437.25;4986888;28;20514;-74
2021/03/16 06:29:53;;;;;;;33.28;28.23;;;;;;;6.49;91.91;98454.00;4986767;28;20038;-76
2021/03/16 06:32:21;;;;;;;45.92;38.85;;;;;;;6.54;92.33;98439.50;4986781;28;20121;-77
2021/03/16 06:35:00;;;;;;;13.63;10.10;;;;;;;6.53;91.88;98453.84;4985586;28;20401;-76
2021/03/16 06:37:26;;;;;;;7.32;5.68;;;;;;;6.40;91.96;98451.81;4985790;28;20487;-73
2021/03/16 06:39:57;;;;;;;10.18;6.88;;;;;;;6.41;92.17;98450.91;4984357;28;20022;-73
2021/03/16 06:42:26;;;;;;;6.15;4.57;;;;;;;6.39;91.51;98458.56;4986700;28;20041;-73
2021/03/16 06:45:07;;;;;;;6.93;4.97;;;;;;;6.47;91.65;98460.78;4986470;28;20030;-76
2021/03/16 06:47:42;;;;;;;10.82;6.88;;;;;;;6.36;92.37;98471.25;4983885;28;20503;-74
2021/03/16 06:50:15;;;;;;;6.38;3.88;;;;;;;6.25;92.98;98458.22;4984859;28;20034;-74
2021/03/16 06:52:47;;;;;;;9.50;5.68;;;;;;;6.28;92.42;98469.91;4986233;28;20034;-73
2021/03/16 06:55:14;;;;;;;;;;;;;;;6.56;91.51;98473.06;4984666;28;20027;-73
2021/03/16 06:57:42;;;;;;;11.05;7.72;;;;;;;6.27;92.00;98469.06;4984963;28;19917;-73
2021/03/16 07:00:09;;;;;;;24.80;17.10;;;;;;;6.57;92.80;98472.19;4984515;28;20034;-73
2021/03/16 07:02:36;;;;;;;11.50;8.10;;;;;;;6.48;93.02;98480.91;5017237;28;20037;-72
2021/03/16 07:05:03;;;;;;;10.48;7.65;;;;;;;6.33;92.04;98484.00;5025071;28;20503;-72
2021/03/16 07:07:32;;;;;;;12.32;8.20;;;;;;;6.84;92.48;98479.59;5023187;28;20052;-72
2021/03/16 07:10:04;;;;;;;8.82;5.75;;;;;;;6.19;92.81;98485.34;5025666;28;20044;-73
2021/03/16 07:12:34;;;;;;;6.05;5.10;;;;;;;6.12;93.78;98470.41;5025236;28;20400;-72
2021/03/16 07:15:02;;;;;;;10.52;8.73;;;;;;;6.40;94.03;98484.63;5026020;28;20403;-73
2021/03/16 07:17:29;;;;;;;6.18;4.80;;;;;;;6.24;93.54;98496.13;5027415;28;20113;-73
2021/03/16 07:20:03;;;;;;;12.52;8.10;;;;;;;6.33;93.26;98485.69;5024964;28;20054;-73
2021/03/16 07:22:40;;;;;;;12.15;7.47;;;;;;;6.46;93.06;98502.03;5024280;28;20091;-77
2021/03/16 07:25:07;;;;;;;11.60;6.30;;;;;;;6.25;93.06;98495.22;5023301;28;20071;-74
2021/03/16 07:27:33;;;;;;;7.75;5.38;;;;;;;6.31;93.95;98500.06;5024861;28;20035;-75
2021/03/16 07:29:59;;;;;;;16.10;10.90;;;;;;;6.54;94.37;98502.59;5022999;28;20136;-72
2021/03/16 07:32:26;;;;;;;18.90;11.88;;;;;;;6.40;93.87;98499.75;5023558;28;20121;-74
2021/03/16 07:34:53;;;;;;;14.98;9.80;;;;;;;6.40;94.87;98499.75;5009230;28;20025;-75
2021/03/16 07:37:19;;;;;;;9.65;6.15;;;;;;;6.24;92.86;98484.31;5004078;28;20038;-73
2021/03/16 07:39:46;;;;;;;34.53;19.10;;;;;;;6.65;93.52;98492.94;5006449;28;20033;-74
2021/03/16 07:42:12;;;;;;;53.58;24.42;;;;;;;6.36;92.91;98499.00;5006556;28;20033;-73
2021/03/16 07:44:43;;;;;;;41.85;20.33;;;;;;;6.37;94.12;98503.19;5008495;28;20021;-74
2021/03/16 07:47:09;;;;;;;24.67;12.95;;;;;;;6.61;92.96;98497.28;5007172;28;20490;-73
2021/03/16 07:49:37;;;;;;;9.85;6.22;;;;;;;6.54;92.36;98498.38;5008201;28;20500;-74
2021/03/16 07:52:18;;;;;;;8.52;5.30;;;;;;;6.56;92.81;98501.66;5007557;28;20048;-73
2021/03/16 07:54:49;;;;;;;24.20;10.65;;;;;;;6.78;92.25;98469.72;5009075;28;20112;-76
2021/03/16 07:57:41;;;;;;;11.40;7.68;;;;;;;6.80;92.83;98503.31;5008816;28;20076;-74
2021/03/16 08:00:08;;;;;;;14.50;8.73;;;;;;;6.96;92.41;98501.03;5007686;28;20064;-73
2021/03/16 08:02:37;;;;;;;14.02;9.85;;;;;;;6.81;92.16;98509.19;5008256;28;20466;-74
2021/03/16 08:05:16;;;;;;;11.32;7.93;;;;;;;6.89;90.90;98513.06;5008516;28;20034;-74
2021/03/16 08:07:43;;;;;;;15.40;9.98;;;;;;;7.14;91.16;98504.56;5008603;28;20022;-72
2021/03/16 08:10:10;;;;;;;20.60;12.70;;;;;;;7.30;90.58;98505.63;5008946;28;20026;-73
2021/03/16 08:12:36;;;;;;;20.10;11.35;;;;;;;6.85;90.21;98511.53;5007583;28;20044;-72
2021/03/16 08:15:13;;;;;;;9.00;7.05;;;;;;;6.99;90.88;98519.41;5007070;28;20403;-74
2021/03/16 08:17:41;;;;;;;13.68;8.32;;;;;;;7.27;89.42;98515.88;5008659;28;20066;-73
2021/03/16 08:20:07;;;;;;;11.23;8.30;;;;;;;7.23;89.82;98521.91;5007241;28;20064;-74
2021/03/16 08:22:33;;;;;;;20.08;11.02;;;;;;;6.91;89.63;98521.41;5006179;28;20033;-73
2021/03/16 08:25:01;;;;;;;13.68;9.93;;;;;;;7.16;90.33;98526.38;5004586;28;20508;-72
2021/03/16 08:27:32;;;;;;;7.78;5.80;;;;;;;7.30;88.46;98515.72;5007364;28;20119;-72
2021/03/16 08:29:57;;;;;;;10.32;7.10;;;;;;;7.16;87.58;98520.50;5004358;28;20123;-70
2021/03/16 08:32:24;;;;;;;5.13;3.63;;;;;;;6.81;87.68;98507.47;5005642;28;20077;-73
2021/03/16 08:34:50;;;;;;;6.82;5.75;;;;;;;7.15;87.70;98506.22;5007067;28;20079;-73
2021/03/16 08:37:26;;;;;;;5.68;4.35;;;;;;;7.21;87.26;98514.38;5006116;28;20033;-74
2021/03/16 08:39:58;;;;;;;5.45;4.50;;;;;;;7.60;85.66;98522.97;5007633;28;20033;-72
2021/03/16 08:42:26;;;;;;;6.32;4.45;;;;;;;7.28;85.79;98512.44;5006339;28;20184;-72
2021/03/16 08:44:53;;;;;;;9.38;4.60;;;;;;;7.21;86.92;98533.78;5005678;28;20033;-71
2021/03/16 08:47:21;;;;;;;12.38;7.00;;;;;;;7.62;86.54;98525.41;5007265;28;20034;-71
2021/03/16 08:49:51;;;;;;;4.80;3.60;;;;;;;7.22;86.09;98527.84;5006293;28;20104;-72
2021/03/16 08:52:30;;;;;;;8.95;5.88;;;;;;;7.49;86.10;98525.06;5007833;28;20022;-71
2021/03/16 08:54:58;;;;;;;14.52;7.78;;;;;;;7.52;86.26;98499.69;5008033;28;20041;-71
2021/03/16 08:57:27;;;;;;;8.68;5.53;;;;;;;7.42;86.29;98526.22;5006528;28;21204;-72
2021/03/16 08:59:57;;;;;;;4.03;3.00;;;;;;;7.56;85.36;98533.25;5006677;28;20034;-72
2021/03/16 09:02:38;;;;;;;5.18;3.78;;;;;;;7.46;87.38;98524.38;5007138;28;20025;-71
2021/03/16 09:05:04;;;;;;;6.40;4.38;;;;;;;7.34;87.76;98533.25;5007522;28;20029;-72
2021/03/16 09:07:33;;;;;;;5.40;3.63;;;;;;;7.32;87.38;98529.97;5005715;28;20196;-73
2021/03/16 09:10:14;;;;;;;4.88;3.30;;;;;;;7.36;88.28;98533.19;5008227;28;20042;-74
2021/03/16 09:12:42;;;;;;;5.95;4.50;;;;;;;7.35;88.14;98519.72;5007240;28;20034;-75
2021/03/16 09:15:27;;;;;;;7.70;4.95;;;;;;;7.40;87.56;98545.66;5006743;28;20049;-69
2021/03/16 09:18:04;;;;;;;5.85;4.47;;;;;;;7.39;86.61;98540.69;5005598;28;20053;-71
2021/03/16 09:20:36;;;;;;;4.70;3.80;;;;;;;7.64;86.66;98541.34;5006082;28;20064;-71
2021/03/16 09:23:11;;;;;;;5.85;4.18;;;;;;;7.73;86.04;98540.97;5005871;28;20034;-72
2021/03/16 09:25:44;;;;;;;6.68;3.70;;;;;;;7.55;85.75;98541.69;5005849;28;20052;-73
2021/03/16 09:28:15;;;;;;;5.82;3.95;;;;;;;7.29;85.71;98534.31;5005540;28;20150;-72
2021/03/16 09:30:44;;;;;;;5.68;4.25;;;;;;;7.66;87.08;98539.59;5005021;28;20030;-71
2021/03/16 09:33:13;;;;;;;8.23;5.72;;;;;;;7.67;86.37;98541.22;5006454;28;20052;-73
2021/03/16 09:35:40;;;;;;;7.68;5.75;;;;;;;7.67;86.04;98539.53;5005139;28;20033;-74
2021/03/16 09:38:07;;;;;;;28.58;16.95;;;;;;;7.54;85.90;98542.59;5005605;28;20067;-73
2021/03/16 09:40:37;;;;;;;11.50;10.27;;;;;;;7.48;85.35;98550.41;5007060;28;20036;-73
2021/03/16 09:43:14;;;;;;;8.27;5.75;;;;;;;7.32;85.41;98535.03;5005220;28;20037;-74
2021/03/16 09:45:40;;;;;;;12.15;9.65;;;;;;;7.47;86.46;98528.53;5005939;28;20408;-74
2021/03/16 09:48:19;;;;;;;12.30;9.68;;;;;;;7.59;86.72;98528.06;5005872;28;20065;-74
2021/03/16 09:50:57;;;;;;;11.10;8.00;;;;;;;8.05;86.14;98532.91;5006758;28;20030;-73
2021/03/16 09:53:22;;;;;;;5.28;4.65;;;;;;;7.89;86.33;98568.16;5007507;28;20026;-74
2021/03/16 09:56:05;;;;;;;14.27;9.00;;;;;;;7.81;87.35;98564.25;5007080;28;20041;-72
2021/03/16 09:58:32;;;;;;;10.60;6.15;;;;;;;7.84;86.70;98542.19;5006073;28;20121;-72
2021/03/16 10:01:03;;;;;;;10.55;7.82;;;;;;;7.72;85.05;98540.19;5007981;28;20119;-71
2021/03/16 10:03:29;;;;;;;8.13;5.57;;;;;;;7.62;82.47;98564.19;5023788;28;20064;-74
2021/03/16 10:06:03;;;;;;;18.85;14.27;;;;;;;8.02;83.71;98578.59;5026857;28;20098;-73
2021/03/16 10:08:29;;;;;;;5.95;4.75;;;;;;;7.83;82.54;98570.09;5027053;28;20040;-73
2021/03/16 10:10:55;;;;;;;13.30;9.30;;;;;;;7.75;82.48;98549.34;5027049;28;20025;-72
2021/03/16 10:13:32;;;;;;;11.10;7.97;;;;;;;8.05;82.79;98585.22;5027356;28;20083;-74
2021/03/16 10:16:06;;;;;;;11.18;9.68;;;;;;;8.04;83.57;98581.06;5025653;28;20030;-73
2021/03/16 10:18:50;;;;;;;23.88;17.15;;;;;;;7.88;81.41;98573.28;5025440;28;20041;-73
2021/03/16 10:21:26;;;;;;;22.92;16.15;;;;;;;8.18;84.50;98594.00;5025820;28;20060;-74
2021/03/16 10:23:57;;;;;;;13.02;9.88;;;;;;;8.20;82.87;98593.00;5025996;28;20059;-76
2021/03/16 10:26:22;;;;;;;7.05;5.60;;;;;;;8.11;83.29;98590.88;5027120;28;20041;-74
2021/03/16 10:28:48;;;;;;;4.85;4.20;;;;;;;8.45;81.98;98585.28;5027285;28;20478;-74
2021/03/16 10:31:17;;;;;;;31.83;25.25;;;;;;;8.45;81.86;98588.63;5025358;28;20025;-73
2021/03/16 10:33:50;;;;;;;16.27;14.02;;;;;;;7.90;83.06;98592.53;5026819;28;20064;-74
2021/03/16 10:36:18;;;;;;;7.85;6.70;;;;;;;7.97;84.90;98593.13;5025498;28;20160;-74
2021/03/16 10:38:48;;;;;;;12.65;8.05;;;;;;;7.96;84.29;98581.38;5026005;28;20049;-73
2021/03/16 10:41:17;;;;;;;31.58;18.55;;;;;;;8.27;85.26;98589.41;5024674;28;20498;-74
2021/03/16 10:43:44;;;;;;;15.55;13.50;;;;;;;8.05;83.32;98578.47;5026596;28;20032;-74
2021/03/16 10:46:11;;;;;;;8.93;7.15;;;;;;;8.26;85.45;98585.22;5026012;28;20489;-74
2021/03/16 10:48:37;;;;;;;8.35;6.10;;;;;;;8.19;85.85;98582.97;5025963;28;20029;-73
2021/03/16 10:51:04;;;;;;;6.22;5.32;;;;;;;8.26;84.88;98574.28;5026980;28;20041;-73
2021/03/16 10:53:30;;;;;;;13.75;12.23;;;;;;;8.28;84.17;98575.03;5025491;28;20030;-73
2021/03/16 10:55:55;;;;;;;6.78;5.88;;;;;;;7.95;83.62;98578.88;5024148;28;20035;-72
2021/03/16 10:58:21;;;;;;;23.13;16.65;;;;;;;8.04;84.88;98581.91;5024567;28;20032;-74
2021/03/16 11:00:47;;;;;;;26.40;16.20;;;;;;;8.15;86.15;98582.28;5023477;28;20427;-73
2021/03/16 11:03:16;;;;;;;12.27;8.57;;;;;;;8.27;87.08;98575.91;5004855;28;21440;-73
2021/03/16 11:05:41;;;;;;;23.17;15.55;;;;;;;8.40;88.52;98571.97;5005192;28;20033;-74
2021/03/16 11:08:07;;;;;;;15.73;12.23;;;;;;;8.28;87.06;98578.38;5003491;28;20389;-75
2021/03/16 11:10:33;;;;;;;24.95;16.33;;;;;;;8.50;88.06;98566.47;5005525;28;20499;-73
2021/03/16 11:12:58;;;;;;;9.98;7.63;;;;;;;8.34;87.87;98557.88;5004513;28;20124;-74
2021/03/16 11:15:24;;;;;;;6.07;4.95;;;;;;;8.32;86.88;98552.03;5009162;28;20436;-75
2021/03/16 11:17:50;;;;;;;7.80;6.40;;;;;;;8.76;88.69;98562.81;5009379;28;20038;-75
2021/03/16 11:20:17;;;;;;;10.80;8.57;;;;;;;8.64;88.66;98568.41;5008394;28;20053;-74
2021/03/16 11:22:43;;;;;;;9.73;7.50;;;;;;;8.14;86.39;98580.59;5009247;28;20581;-74
2021/03/16 11:25:10;;;;;;;11.90;9.70;;;;;;;8.16;85.84;98555.25;5010572;28;20037;-74
2021/03/16 11:27:37;;;;;;;7.95;6.95;;;;;;;8.25;83.83;98575.16;5010363;28;20099;-74
2021/03/16 11:30:07;;;;;;;13.80;11.57;;;;;;;8.85;83.77;98581.88;5010725;28;20108;-73
2021/03/16 11:32:35;;;;;;;7.75;6.82;;;;;;;8.55;84.39;98584.84;5009255;28;20033;-74
2021/03/16 11:35:03;;;;;;;13.57;9.63;;;;;;;8.85;85.27;98580.16;5009607;28;20384;-74
2021/03/16 11:37:30;;;;;;;18.52;13.48;;;;;;;8.85;85.60;98587.75;5009037;28;20041;-73
2021/03/16 11:39:56;;;;;;;16.50;12.27;;;;;;;8.34;85.21;98560.41;5009804;28;20058;-74
2021/03/16 11:42:22;;;;;;;15.20;12.00;;;;;;;8.52;84.39;98579.06;5009707;28;20119;-73
2021/03/16 11:44:47;;;;;;;14.57;9.38;;;;;;;8.27;85.33;98570.84;5009503;28;20037;-75
2021/03/16 11:47:16;;;;;;;37.65;19.92;;;;;;;8.19;85.24;98548.34;5010012;28;20040;-73
2021/03/16 11:49:45;;;;;;;16.20;11.90;;;;;;;8.30;86.50;98578.34;5007016;28;20037;-74
2021/03/16 11:52:10;;;;;;;9.40;7.55;;;;;;;8.14;82.27;98587.41;5000546;28;20034;-74
2021/03/16 11:54:39;;;;;;;14.82;11.23;;;;;;;8.25;83.20;98578.50;5008484;28;20033;-74